Kimitsumaru — JD2860 — position and weather

sailwx.info

Track history (hours):
 
Tides and Currents Weather Stations Pressure Air Temp Water Temp Dewpoint Dewpoint Depression Visibility Wind Speed Wind Dir Waves Ship Positions

Kimitsumaru

Last reported at 2017-Nov-19 06:31 UTC. Time now 2017-Nov-19 06:47 UTC.
Position N 35°22' E 139°54'.

Length 38 m; draft 3.8 m.

Type: Tug. MMSI: 431000894.

Date/timePositionNaut miles runAvg speedWind from/ knotsBaromVisibWave heightAir tempDewpointWater temp
2017-Nov-19 06:31N 35°22' E 139°54'0 0.0
2017-Nov-19 06:00N 35°22' E 139°54'0 0.0
2017-Nov-19 05:30N 35°22' E 139°54'0 0.0
2017-Nov-19 04:54N 35°22' E 139°54'0 0.0
2017-Nov-19 04:27N 35°22' E 139°54'0 0.0
2017-Nov-19 04:00N 35°22' E 139°54'0 0.0
2017-Nov-19 03:29N 35°22' E 139°54'0 0.0
2017-Nov-19 03:00N 35°22' E 139°54'0 0.0
2017-Nov-19 02:29N 35°22' E 139°54'0 0.0
2017-Nov-19 02:00N 35°22' E 139°54'0 0.0
2017-Nov-19 01:31N 35°22' E 139°54'0 0.0
2017-Nov-19 01:00N 35°22' E 139°54'0 0.0
2017-Nov-19 00:30N 35°22' E 139°54'0 0.0
2017-Nov-19 00:00N 35°22' E 139°54'0 0.6
2017-Nov-18 23:30N 35°21' E 139°54'0 0.9
2017-Nov-18 23:00N 35°22' E 139°54'0 0.4
2017-Nov-18 22:30N 35°22' E 139°54'0 0.5
2017-Nov-18 22:00N 35°22' E 139°54'1 1.7
2017-Nov-18 21:23N 35°22' E 139°52'1 1.6
2017-Nov-18 21:00N 35°22' E 139°52'0 0.3
2017-Nov-18 20:30N 35°22' E 139°52'0 0.6
2017-Nov-18 20:00N 35°22' E 139°52'2 3.1
2017-Nov-18 19:29N 35°22' E 139°54'0 0.0
2017-Nov-18 18:57N 35°22' E 139°54'0 0.0
2017-Nov-18 18:28N 35°22' E 139°54'0 0.0
2017-Nov-18 18:00N 35°22' E 139°54'0 0.0
2017-Nov-18 17:29N 35°22' E 139°54'0 0.0
2017-Nov-18 16:59N 35°22' E 139°54'0 0.0
2017-Nov-18 16:28N 35°22' E 139°54'0 0.0
2017-Nov-18 15:55N 35°22' E 139°54'0 0.0
2017-Nov-18 15:30N 35°22' E 139°54'0 0.0
2017-Nov-18 15:00N 35°22' E 139°54'0 0.0
2017-Nov-18 14:30N 35°22' E 139°54'0 0.0
2017-Nov-18 13:58N 35°22' E 139°54'0 0.0
2017-Nov-18 00:52N 35°22' E 139°54'0 0.0
2017-Nov-17 22:50N 35°22' E 139°54'0 0.3
2017-Nov-17 22:21N 35°21' E 139°54'2 4.4
2017-Nov-17 22:00N 35°22' E 139°52'0 0.0
2017-Nov-17 21:29N 35°22' E 139°52'0 0.7
2017-Nov-17 21:00N 35°22' E 139°52'2 4.5
2017-Nov-17 20:30N 35°23' E 139°49'2 3.7
2017-Nov-17 20:00N 35°25' E 139°49'1 1.4
2017-Nov-17 19:31N 35°25' E 139°49'3 6.6
2017-Nov-17 19:00N 35°22' E 139°52'0 0.5
2017-Nov-17 18:30N 35°22' E 139°52'0 0.1
2017-Nov-17 17:59N 35°22' E 139°52'0 0.5
2017-Nov-17 17:30N 35°22' E 139°52'0 0.1
2017-Nov-17 17:00N 35°22' E 139°52'1 2.9
2017-Nov-17 16:30N 35°23' E 139°51'3 5.7
2017-Nov-17 16:01N 35°24' E 139°48'3 5.9
2017-Nov-17 15:30N 35°26' E 139°51'3 6.2
2017-Nov-17 15:00N 35°23' E 139°51'3 5.2
2017-Nov-17 14:30N 35°22' E 139°54'0 0.0
2017-Nov-17 14:00N 35°22' E 139°54'0 0.0
2017-Nov-17 13:30N 35°22' E 139°54'0 0.0
2017-Nov-17 13:00N 35°22' E 139°54'0 0.0
2017-Nov-17 12:30N 35°22' E 139°54'0 0.0
2017-Nov-17 12:00N 35°22' E 139°54'0 0.0
2017-Nov-17 11:29N 35°22' E 139°54'0 0.0
2017-Nov-17 11:00N 35°22' E 139°54'0 0.0
2017-Nov-17 10:30N 35°22' E 139°54'0 0.0
2017-Nov-17 10:00N 35°22' E 139°54'0 0.0
2017-Nov-17 09:30N 35°22' E 139°54'0 0.0
2017-Nov-17 08:58N 35°22' E 139°54'0 0.0
2017-Nov-17 08:30N 35°22' E 139°54'0 0.0
2017-Nov-17 07:56N 35°22' E 139°54'0 0.0
2017-Nov-17 07:29N 35°22' E 139°54'3 6.6
2017-Nov-17 07:01N 35°22' E 139°50'1 2.0
2017-Nov-17 06:31N 35°21' E 139°51'2 1.4
2017-Nov-17 05:01N 35°22' E 139°54'111.9
2017-Nov-17 04:56N 35°22' E 139°52'1 3.4
2017-Nov-17 04:30N 35°22' E 139°51'2 3.1
2017-Nov-17 04:00N 35°23' E 139°49'0 0.4
2017-Nov-17 03:30N 35°23' E 139°49'4 0.3
2017-Nov-16 14:39N 35°22' E 139°54'1 5.3
2017-Nov-16 14:30N 35°22' E 139°53'1 1.7
2017-Nov-16 14:00N 35°22' E 139°52'0 0.2
2017-Nov-16 13:30N 35°22' E 139°52'1 1.5
2017-Nov-16 13:01N 35°22' E 139°51'3 5.3
2017-Nov-16 12:30N 35°24' E 139°49'1 1.6
2017-Nov-16 12:00N 35°25' E 139°49'3 6.0
2017-Nov-16 11:30N 35°22' E 139°52'1 1.2
2017-Nov-16 11:00N 35°22' E 139°52'0 0.2
2017-Nov-16 10:30N 35°22' E 139°52'0 0.8
2017-Nov-16 10:00N 35°22' E 139°53'0 0.0
2017-Nov-16 09:30N 35°22' E 139°53'0 0.0
2017-Nov-16 09:00N 35°22' E 139°53'0 0.0
2017-Nov-16 05:51N 35°22' E 139°53'3 8.5
2017-Nov-16 05:30N 35°21' E 139°49'1 1.6
2017-Nov-16 05:00N 35°20' E 139°49'0 0.0
2017-Nov-16 04:30N 35°20' E 139°49'0 0.4
2017-Nov-16 04:00N 35°21' E 139°49'2 3.8
2017-Nov-16 03:30N 35°22' E 139°48'1 1.3
2017-Nov-16 03:00N 35°23' E 139°48'0 0.2
2017-Nov-16 02:30N 35°23' E 139°48'1 2.8
2017-Nov-16 02:00N 35°22' E 139°49'1 1.9
2017-Nov-16 01:30N 35°21' E 139°49'0 0.2
2017-Nov-16 01:00N 35°21' E 139°49'1 2.6
2017-Nov-16 00:30N 35°22' E 139°49'4 0.2
2017-Nov-15 02:38N 35°22' E 139°54'210.9
2017-Nov-15 02:28N 35°22' E 139°52'3 5.6
2017-Nov-15 02:00N 35°21' E 139°49'0 0.0
2017-Nov-15 01:30N 35°21' E 139°49'0 0.1
2017-Nov-15 01:00N 35°21' E 139°49'1 1.9
2017-Nov-15 00:30N 35°22' E 139°49'1 2.5
2017-Nov-15 00:00N 35°23' E 139°48'0 0.0
2017-Nov-14 23:30N 35°23' E 139°48'3 5.5
2017-Nov-14 23:00N 35°22' E 139°51'2 0.1
2017-Nov-14 02:41N 35°22' E 139°54'1 1.0
2017-Nov-14 01:36N 35°22' E 139°53'0 0.0
2017-Nov-14 01:28N 35°22' E 139°53'0 0.0
2017-Nov-14 01:00N 35°22' E 139°53'0 0.0
2017-Nov-14 00:20N 35°22' E 139°53'0 0.0
2017-Nov-13 23:58N 35°22' E 139°53'0 0.0
2017-Nov-13 22:43N 35°22' E 139°53'1 3.0
2017-Nov-13 22:29N 35°22' E 139°54'1 1.5
2017-Nov-13 22:00N 35°22' E 139°53'1 0.0
2017-Nov-13 02:00N 35°22' E 139°54'0 0.0
2017-Nov-13 00:37N 35°22' E 139°54'0 0.0
2017-Nov-13 00:19N 35°22' E 139°54'0 0.0
2017-Nov-12 23:36N 35°22' E 139°54'0 0.0
2017-Nov-12 23:30N 35°22' E 139°54'0 0.0
2017-Nov-12 22:59N 35°22' E 139°54'0 0.0
2017-Nov-12 21:08N 35°22' E 139°54'0 0.0
2017-Nov-12 20:57N 35°22' E 139°54'0 0.0
2017-Nov-12 20:22N 35°22' E 139°54'0 0.0
2017-Nov-12 20:00N 35°22' E 139°54'0 0.0
2017-Nov-12 19:28N 35°22' E 139°54'0 0.0
2017-Nov-12 18:56N 35°22' E 139°54'0 0.0
2017-Nov-12 18:30N 35°22' E 139°54'0 0.0
2017-Nov-12 18:00N 35°22' E 139°54'0 0.0
2017-Nov-12 17:30N 35°22' E 139°54'0 0.0
2017-Nov-12 17:00N 35°22' E 139°54'0 0.0
2017-Nov-12 16:30N 35°22' E 139°54'0 0.0
2017-Nov-12 16:00N 35°22' E 139°54'0 0.0
2017-Nov-12 15:30N 35°22' E 139°54'0 0.0
2017-Nov-12 15:01N 35°22' E 139°54'0 0.0
2017-Nov-12 14:30N 35°22' E 139°54'0 0.0
2017-Nov-12 14:00N 35°22' E 139°54'0 0.5
2017-Nov-12 13:30N 35°22' E 139°54'1 2.8
2017-Nov-12 13:01N 35°22' E 139°52'0 0.1
2017-Nov-12 12:30N 35°22' E 139°52'1 1.6
2017-Nov-12 12:00N 35°23' E 139°51'2 4.5
2017-Nov-12 11:30N 35°24' E 139°49'2 4.1
2017-Nov-12 11:00N 35°26' E 139°49'1 1.9
2017-Nov-12 10:30N 35°26' E 139°50'3 6.9
2017-Nov-12 10:00N 35°23' E 139°51'2 4.2
2017-Nov-12 09:27N 35°22' E 139°54'0 0.0
2017-Nov-12 09:01N 35°22' E 139°54'0 0.0
2017-Nov-12 08:05N 35°22' E 139°54'0 0.0
2017-Nov-12 07:53N 35°22' E 139°54'0 0.0
2017-Nov-12 07:02N 35°22' E 139°54'0 0.0
2017-Nov-12 06:59N 35°22' E 139°54'0 0.0
2017-Nov-12 06:30N 35°22' E 139°54'0 0.0
2017-Nov-12 06:00N 35°22' E 139°54'0 0.0
2017-Nov-12 04:37N 35°22' E 139°54'0 0.4
2017-Nov-12 04:30N 35°22' E 139°54'1 2.4
2017-Nov-12 04:01N 35°22' E 139°52'0 0.2
2017-Nov-12 03:30N 35°22' E 139°52'3 5.8
2017-Nov-12 03:01N 35°23' E 139°49'2 3.3
2017-Nov-12 02:30N 35°25' E 139°50'4 8.6
2017-Nov-12 02:01N 35°21' E 139°49'0 0.0
2017-Nov-12 01:30N 35°21' E 139°49'0 0.0
2017-Nov-12 01:00N 35°21' E 139°49'0 0.3
2017-Nov-12 00:30N 35°21' E 139°49'2 3.7
2017-Nov-12 00:00N 35°23' E 139°48'2 4.1
2017-Nov-11 23:30N 35°22' E 139°46'1 2.2
2017-Nov-11 23:00N 35°22' E 139°47'5 8.9
2017-Nov-11 22:28N 35°22' E 139°53'1 0.0
2017-Nov-10 00:49N 35°22' E 139°54'1 2.5
2017-Nov-10 00:31N 35°22' E 139°53'0 0.0
2017-Nov-10 00:00N 35°22' E 139°53'0 0.0
2017-Nov-09 23:29N 35°22' E 139°53'0 0.0
2017-Nov-09 22:59N 35°22' E 139°53'0 0.1
2017-Nov-09 22:28N 35°22' E 139°53'2 3.8
2017-Nov-09 22:01N 35°22' E 139°51'0 0.3
2017-Nov-09 21:30N 35°22' E 139°50'0 0.9
2017-Nov-09 21:00N 35°22' E 139°50'3 5.4
2017-Nov-09 20:30N 35°22' E 139°53'0 0.4
2017-Nov-09 20:00N 35°22' E 139°53'2 4.9
2017-Nov-09 19:31N 35°23' E 139°50'2 4.1
2017-Nov-09 19:00N 35°25' E 139°51'0 0.7
2017-Nov-09 18:30N 35°25' E 139°51'0 0.0
2017-Nov-09 18:00N 35°25' E 139°51'3 6.2
2017-Nov-09 17:30N 35°22' E 139°51'0 0.6
2017-Nov-09 17:00N 35°21' E 139°51'2 3.1
2017-Nov-09 16:30N 35°23' E 139°50'3 5.7
2017-Nov-09 16:00N 35°22' E 139°54'0 0.1
2017-Nov-09 14:35N 35°22' E 139°54'0 0.0
2017-Nov-09 14:28N 35°22' E 139°54'0 0.0
2017-Nov-09 13:59N 35°22' E 139°54'0 0.0
2017-Nov-09 13:29N 35°22' E 139°54'0 0.0
2017-Nov-09 08:37N 35°22' E 139°54'0 0.0
2017-Nov-09 08:28N 35°22' E 139°54'0 0.0
2017-Nov-09 08:00N 35°22' E 139°54'0 0.0
2017-Nov-09 07:30N 35°22' E 139°54'1 1.9
2017-Nov-09 06:59N 35°22' E 139°53'  
Track history (hours):
 
Tides and Currents Weather Stations Pressure Air Temp Water Temp Dewpoint Dewpoint Depression Visibility Wind Speed Wind Dir Waves Ship Positions

Kimitsumaru

Last reported at 2017-Nov-19 06:31 UTC. Time now 2017-Nov-19 06:47 UTC.
Position N 35°22' E 139°54'.

Length 38 m; draft 3.8 m.

Type: Tug. MMSI: 431000894.

Date/timePositionNaut miles runAvg speedWind from/ knotsBaromVisibWave heightAir tempDewpointWater temp
2017-Nov-19 06:31N 35°22' E 139°54'0 0.0
2017-Nov-19 06:00N 35°22' E 139°54'0 0.0
2017-Nov-19 05:30N 35°22' E 139°54'0 0.0
2017-Nov-19 04:54N 35°22' E 139°54'0 0.0
2017-Nov-19 04:27N 35°22' E 139°54'0 0.0
2017-Nov-19 04:00N 35°22' E 139°54'0 0.0
2017-Nov-19 03:29N 35°22' E 139°54'0 0.0
2017-Nov-19 03:00N 35°22' E 139°54'0 0.0
2017-Nov-19 02:29N 35°22' E 139°54'0 0.0
2017-Nov-19 02:00N 35°22' E 139°54'0 0.0
2017-Nov-19 01:31N 35°22' E 139°54'0 0.0
2017-Nov-19 01:00N 35°22' E 139°54'0 0.0
2017-Nov-19 00:30N 35°22' E 139°54'0 0.0
2017-Nov-19 00:00N 35°22' E 139°54'0 0.6
2017-Nov-18 23:30N 35°21' E 139°54'0 0.9
2017-Nov-18 23:00N 35°22' E 139°54'0 0.4
2017-Nov-18 22:30N 35°22' E 139°54'0 0.5
2017-Nov-18 22:00N 35°22' E 139°54'1 1.7
2017-Nov-18 21:23N 35°22' E 139°52'1 1.6
2017-Nov-18 21:00N 35°22' E 139°52'0 0.3
2017-Nov-18 20:30N 35°22' E 139°52'0 0.6
2017-Nov-18 20:00N 35°22' E 139°52'2 3.1
2017-Nov-18 19:29N 35°22' E 139°54'0 0.0
2017-Nov-18 18:57N 35°22' E 139°54'0 0.0
2017-Nov-18 18:28N 35°22' E 139°54'0 0.0
2017-Nov-18 18:00N 35°22' E 139°54'0 0.0
2017-Nov-18 17:29N 35°22' E 139°54'0 0.0
2017-Nov-18 16:59N 35°22' E 139°54'0 0.0
2017-Nov-18 16:28N 35°22' E 139°54'0 0.0
2017-Nov-18 15:55N 35°22' E 139°54'0 0.0
2017-Nov-18 15:30N 35°22' E 139°54'0 0.0
2017-Nov-18 15:00N 35°22' E 139°54'0 0.0
2017-Nov-18 14:30N 35°22' E 139°54'0 0.0
2017-Nov-18 13:58N 35°22' E 139°54'0 0.0
2017-Nov-18 00:52N 35°22' E 139°54'0 0.0
2017-Nov-17 22:50N 35°22' E 139°54'0 0.3
2017-Nov-17 22:21N 35°21' E 139°54'2 4.4
2017-Nov-17 22:00N 35°22' E 139°52'0 0.0
2017-Nov-17 21:29N 35°22' E 139°52'0 0.7
2017-Nov-17 21:00N 35°22' E 139°52'2 4.5
2017-Nov-17 20:30N 35°23' E 139°49'2 3.7
2017-Nov-17 20:00N 35°25' E 139°49'1 1.4
2017-Nov-17 19:31N 35°25' E 139°49'3 6.6
2017-Nov-17 19:00N 35°22' E 139°52'0 0.5
2017-Nov-17 18:30N 35°22' E 139°52'0 0.1
2017-Nov-17 17:59N 35°22' E 139°52'0 0.5
2017-Nov-17 17:30N 35°22' E 139°52'0 0.1
2017-Nov-17 17:00N 35°22' E 139°52'1 2.9
2017-Nov-17 16:30N 35°23' E 139°51'3 5.7
2017-Nov-17 16:01N 35°24' E 139°48'3 5.9
2017-Nov-17 15:30N 35°26' E 139°51'3 6.2
2017-Nov-17 15:00N 35°23' E 139°51'3 5.2
2017-Nov-17 14:30N 35°22' E 139°54'0 0.0
2017-Nov-17 14:00N 35°22' E 139°54'0 0.0
2017-Nov-17 13:30N 35°22' E 139°54'0 0.0
2017-Nov-17 13:00N 35°22' E 139°54'0 0.0
2017-Nov-17 12:30N 35°22' E 139°54'0 0.0
2017-Nov-17 12:00N 35°22' E 139°54'0 0.0
2017-Nov-17 11:29N 35°22' E 139°54'0 0.0
2017-Nov-17 11:00N 35°22' E 139°54'0 0.0
2017-Nov-17 10:30N 35°22' E 139°54'0 0.0
2017-Nov-17 10:00N 35°22' E 139°54'0 0.0
2017-Nov-17 09:30N 35°22' E 139°54'0 0.0
2017-Nov-17 08:58N 35°22' E 139°54'0 0.0
2017-Nov-17 08:30N 35°22' E 139°54'0 0.0
2017-Nov-17 07:56N 35°22' E 139°54'0 0.0
2017-Nov-17 07:29N 35°22' E 139°54'3 6.6
2017-Nov-17 07:01N 35°22' E 139°50'1 2.0
2017-Nov-17 06:31N 35°21' E 139°51'2 1.4
2017-Nov-17 05:01N 35°22' E 139°54'111.9
2017-Nov-17 04:56N 35°22' E 139°52'1 3.4
2017-Nov-17 04:30N 35°22' E 139°51'2 3.1
2017-Nov-17 04:00N 35°23' E 139°49'0 0.4
2017-Nov-17 03:30N 35°23' E 139°49'4 0.3
2017-Nov-16 14:39N 35°22' E 139°54'1 5.3
2017-Nov-16 14:30N 35°22' E 139°53'1 1.7
2017-Nov-16 14:00N 35°22' E 139°52'0 0.2
2017-Nov-16 13:30N 35°22' E 139°52'1 1.5
2017-Nov-16 13:01N 35°22' E 139°51'3 5.3
2017-Nov-16 12:30N 35°24' E 139°49'1 1.6
2017-Nov-16 12:00N 35°25' E 139°49'3 6.0
2017-Nov-16 11:30N 35°22' E 139°52'1 1.2
2017-Nov-16 11:00N 35°22' E 139°52'0 0.2
2017-Nov-16 10:30N 35°22' E 139°52'0 0.8
2017-Nov-16 10:00N 35°22' E 139°53'0 0.0
2017-Nov-16 09:30N 35°22' E 139°53'0 0.0
2017-Nov-16 09:00N 35°22' E 139°53'0 0.0
2017-Nov-16 05:51N 35°22' E 139°53'3 8.5
2017-Nov-16 05:30N 35°21' E 139°49'1 1.6
2017-Nov-16 05:00N 35°20' E 139°49'0 0.0
2017-Nov-16 04:30N 35°20' E 139°49'0 0.4
2017-Nov-16 04:00N 35°21' E 139°49'2 3.8
2017-Nov-16 03:30N 35°22' E 139°48'1 1.3
2017-Nov-16 03:00N 35°23' E 139°48'0 0.2
2017-Nov-16 02:30N 35°23' E 139°48'1 2.8
2017-Nov-16 02:00N 35°22' E 139°49'1 1.9
2017-Nov-16 01:30N 35°21' E 139°49'0 0.2
2017-Nov-16 01:00N 35°21' E 139°49'1 2.6
2017-Nov-16 00:30N 35°22' E 139°49'4 0.2
2017-Nov-15 02:38N 35°22' E 139°54'210.9
2017-Nov-15 02:28N 35°22' E 139°52'3 5.6
2017-Nov-15 02:00N 35°21' E 139°49'0 0.0
2017-Nov-15 01:30N 35°21' E 139°49'0 0.1
2017-Nov-15 01:00N 35°21' E 139°49'1 1.9
2017-Nov-15 00:30N 35°22' E 139°49'1 2.5
2017-Nov-15 00:00N 35°23' E 139°48'0 0.0
2017-Nov-14 23:30N 35°23' E 139°48'3 5.5
2017-Nov-14 23:00N 35°22' E 139°51'2 0.1
2017-Nov-14 02:41N 35°22' E 139°54'1 1.0
2017-Nov-14 01:36N 35°22' E 139°53'0 0.0
2017-Nov-14 01:28N 35°22' E 139°53'0 0.0
2017-Nov-14 01:00N 35°22' E 139°53'0 0.0
2017-Nov-14 00:20N 35°22' E 139°53'0 0.0
2017-Nov-13 23:58N 35°22' E 139°53'0 0.0
2017-Nov-13 22:43N 35°22' E 139°53'1 3.0
2017-Nov-13 22:29N 35°22' E 139°54'1 1.5
2017-Nov-13 22:00N 35°22' E 139°53'1 0.0
2017-Nov-13 02:00N 35°22' E 139°54'0 0.0
2017-Nov-13 00:37N 35°22' E 139°54'0 0.0
2017-Nov-13 00:19N 35°22' E 139°54'0 0.0
2017-Nov-12 23:36N 35°22' E 139°54'0 0.0
2017-Nov-12 23:30N 35°22' E 139°54'0 0.0
2017-Nov-12 22:59N 35°22' E 139°54'0 0.0
2017-Nov-12 21:08N 35°22' E 139°54'0 0.0
2017-Nov-12 20:57N 35°22' E 139°54'0 0.0
2017-Nov-12 20:22N 35°22' E 139°54'0 0.0
2017-Nov-12 20:00N 35°22' E 139°54'0 0.0
2017-Nov-12 19:28N 35°22' E 139°54'0 0.0
2017-Nov-12 18:56N 35°22' E 139°54'0 0.0
2017-Nov-12 18:30N 35°22' E 139°54'0 0.0
2017-Nov-12 18:00N 35°22' E 139°54'0 0.0
2017-Nov-12 17:30N 35°22' E 139°54'0 0.0
2017-Nov-12 17:00N 35°22' E 139°54'0 0.0
2017-Nov-12 16:30N 35°22' E 139°54'0 0.0
2017-Nov-12 16:00N 35°22' E 139°54'0 0.0
2017-Nov-12 15:30N 35°22' E 139°54'0 0.0
2017-Nov-12 15:01N 35°22' E 139°54'0 0.0
2017-Nov-12 14:30N 35°22' E 139°54'0 0.0
2017-Nov-12 14:00N 35°22' E 139°54'0 0.5
2017-Nov-12 13:30N 35°22' E 139°54'1 2.8
2017-Nov-12 13:01N 35°22' E 139°52'0 0.1
2017-Nov-12 12:30N 35°22' E 139°52'1 1.6
2017-Nov-12 12:00N 35°23' E 139°51'2 4.5
2017-Nov-12 11:30N 35°24' E 139°49'2 4.1
2017-Nov-12 11:00N 35°26' E 139°49'1 1.9
2017-Nov-12 10:30N 35°26' E 139°50'3 6.9
2017-Nov-12 10:00N 35°23' E 139°51'2 4.2
2017-Nov-12 09:27N 35°22' E 139°54'0 0.0
2017-Nov-12 09:01N 35°22' E 139°54'0 0.0
2017-Nov-12 08:05N 35°22' E 139°54'0 0.0
2017-Nov-12 07:53N 35°22' E 139°54'0 0.0
2017-Nov-12 07:02N 35°22' E 139°54'0 0.0
2017-Nov-12 06:59N 35°22' E 139°54'0 0.0
2017-Nov-12 06:30N 35°22' E 139°54'0 0.0
2017-Nov-12 06:00N 35°22' E 139°54'0 0.0
2017-Nov-12 04:37N 35°22' E 139°54'0 0.4
2017-Nov-12 04:30N 35°22' E 139°54'1 2.4
2017-Nov-12 04:01N 35°22' E 139°52'0 0.2
2017-Nov-12 03:30N 35°22' E 139°52'3 5.8
2017-Nov-12 03:01N 35°23' E 139°49'2 3.3
2017-Nov-12 02:30N 35°25' E 139°50'4 8.6
2017-Nov-12 02:01N 35°21' E 139°49'0 0.0
2017-Nov-12 01:30N 35°21' E 139°49'0 0.0
2017-Nov-12 01:00N 35°21' E 139°49'0 0.3
2017-Nov-12 00:30N 35°21' E 139°49'2 3.7
2017-Nov-12 00:00N 35°23' E 139°48'2 4.1
2017-Nov-11 23:30N 35°22' E 139°46'1 2.2
2017-Nov-11 23:00N 35°22' E 139°47'5 8.9
2017-Nov-11 22:28N 35°22' E 139°53'1 0.0
2017-Nov-10 00:49N 35°22' E 139°54'1 2.5
2017-Nov-10 00:31N 35°22' E 139°53'0 0.0
2017-Nov-10 00:00N 35°22' E 139°53'0 0.0
2017-Nov-09 23:29N 35°22' E 139°53'0 0.0
2017-Nov-09 22:59N 35°22' E 139°53'0 0.1
2017-Nov-09 22:28N 35°22' E 139°53'2 3.8
2017-Nov-09 22:01N 35°22' E 139°51'0 0.3
2017-Nov-09 21:30N 35°22' E 139°50'0 0.9
2017-Nov-09 21:00N 35°22' E 139°50'3 5.4
2017-Nov-09 20:30N 35°22' E 139°53'0 0.4
2017-Nov-09 20:00N 35°22' E 139°53'2 4.9
2017-Nov-09 19:31N 35°23' E 139°50'2 4.1
2017-Nov-09 19:00N 35°25' E 139°51'0 0.7
2017-Nov-09 18:30N 35°25' E 139°51'0 0.0
2017-Nov-09 18:00N 35°25' E 139°51'3 6.2
2017-Nov-09 17:30N 35°22' E 139°51'0 0.6
2017-Nov-09 17:00N 35°21' E 139°51'2 3.1
2017-Nov-09 16:30N 35°23' E 139°50'3 5.7
2017-Nov-09 16:00N 35°22' E 139°54'0 0.1
2017-Nov-09 14:35N 35°22' E 139°54'0 0.0
2017-Nov-09 14:28N 35°22' E 139°54'0 0.0
2017-Nov-09 13:59N 35°22' E 139°54'0 0.0
2017-Nov-09 13:29N 35°22' E 139°54'0 0.0
2017-Nov-09 08:37N 35°22' E 139°54'0 0.0
2017-Nov-09 08:28N 35°22' E 139°54'0 0.0
2017-Nov-09 08:00N 35°22' E 139°54'0 0.0
2017-Nov-09 07:30N 35°22' E 139°54'1 1.9
2017-Nov-09 06:59N 35°22' E 139°53'  

Dump ship's entire track history